Time;durP1;ratioP1;P1;durP2;ratioP2;P2;SDS_P1;SDS_P2;PMS_P1;PMS_P2;Temp;Humidity;BMP_temperature;BMP_pressure;BME280_temperature;BME280_humidity;BME280_pressure;Samples;Min_cycle;Max_cycle;Signal;HPM_P1;HPM_P2
2023/10/29 00:02:18;;;;;;;;;;;;;;;21.26;44.64;100607.80;102715;1291;62225;-82
2023/10/29 00:04:44;;;;;;;;;;;;;;;21.26;44.58;100608.01;102632;1290;62656;-82
2023/10/29 00:07:10;;;;;;;;;;;;;;;21.26;44.66;100609.59;102701;1291;62286;-81
2023/10/29 00:09:37;;;;;;;;;;;;;;;21.26;44.63;100614.45;102639;1290;62538;-82
2023/10/29 00:12:03;;;;;;;;;;;;;;;21.26;44.62;100614.82;102670;1290;62180;-83
2023/10/29 00:14:29;;;;;;;;;;;;;;;21.26;44.69;100614.84;102714;1295;62219;-82
2023/10/29 00:16:54;;;;;;;;;;;;;;;21.26;44.73;100613.75;102709;1290;63722;-84
2023/10/29 00:19:19;;;;;;;;;;;;;;;21.26;44.68;100615.19;102693;1290;63426;-83
2023/10/29 00:21:45;;;;;;;;;;;;;;;21.26;44.74;100619.64;102667;1290;63199;-82
2023/10/29 00:24:10;;;;;;;;;;;;;;;21.26;44.63;100623.80;102698;1290;62764;-82
2023/10/29 00:26:36;;;;;;;;;;;;;;;21.25;44.66;100625.77;102659;1290;62298;-81
2023/10/29 00:29:02;;;;;;;;;;;;;;;21.26;44.63;100630.77;102681;1290;62320;-83
2023/10/29 00:31:28;;;;;;;;;;;;;;;21.25;44.61;100635.63;102775;1290;62258;-82
2023/10/29 00:33:53;;;;;;;;;;;;;;;21.25;44.69;100638.85;102634;1298;62866;-82
2023/10/29 00:36:19;;;;;;;;;;;;;;;21.25;44.75;100638.14;102712;1290;62203;-83
2023/10/29 00:38:45;;;;;;;;;;;;;;;21.25;44.64;100641.16;102744;1290;62228;-82
2023/10/29 00:41:11;;;;;;;;;;;;;;;21.25;44.58;100641.54;102660;1289;63256;-81
2023/10/29 00:43:40;;;;;;;;;;;;;;;21.25;44.64;100643.52;102678;1290;62142;-81
2023/10/29 00:46:06;;;;;;;;;;;;;;;21.25;44.59;100641.73;102757;1290;62219;-81
2023/10/29 00:48:31;;;;;;;;;;;;;;;21.25;44.65;100646.92;102758;1295;62754;-81
2023/10/29 00:50:57;;;;;;;;;;;;;;;21.25;44.55;100645.34;102696;1290;62232;-82
2023/10/29 00:53:24;;;;;;;;;;;;;;;21.25;44.52;100649.27;102720;1296;63174;-84
2023/10/29 00:55:49;;;;;;;;;;;;;;;21.25;44.62;100651.39;102717;1296;62187;-83
2023/10/29 00:58:15;;;;;;;;;;;;;;;21.25;44.61;100650.68;102728;1290;62631;-82
2023/10/29 01:00:40;;;;;;;;;;;;;;;21.25;44.47;100651.76;102709;1290;62216;-83
2023/10/29 01:03:06;;;;;;;;;;;;;;;21.25;44.62;100650.71;102710;1293;62250;-81
2023/10/29 01:05:31;;;;;;;;;;;;;;;21.25;44.60;100652.13;102753;1289;62157;-83
2023/10/29 01:07:57;;;;;;;;;;;;;;;21.25;44.56;100651.05;102711;1291;62378;-81
2023/10/29 01:10:22;;;;;;;;;;;;;;;21.25;44.64;100648.93;102714;1291;62158;-83
2023/10/29 01:12:48;;;;;;;;;;;;;;;21.24;44.66;100649.32;102673;1293;63389;-82
2023/10/29 01:15:14;;;;;;;;;;;;;;;21.24;44.66;100651.45;102738;1290;62212;-82
2023/10/29 01:17:41;;;;;;;;;;;;;;;21.24;44.54;100654.51;102741;1296;62148;-81
2023/10/29 01:20:06;;;;;;;;;;;;;;;21.24;44.66;100651.98;102791;1290;62670;-82
2023/10/29 01:22:32;;;;;;;;;;;;;;;21.24;44.62;100652.55;102730;1291;62358;-81
2023/10/29 01:24:58;;;;;;;;;;;;;;;21.24;44.67;100649.70;102752;1290;62086;-82
2023/10/29 01:27:23;;;;;;;;;;;;;;;21.24;44.62;100649.88;102835;1291;63467;-82
2023/10/29 01:29:50;;;;;;;;;;;;;;;21.24;44.57;100649.90;102729;1296;62295;-83
2023/10/29 01:32:15;;;;;;;;;;;;;;;21.24;44.60;100652.40;102756;1291;62190;-81
2023/10/29 01:34:41;;;;;;;;;;;;;;;21.24;44.59;100649.69;102742;1296;63387;-82
2023/10/29 01:37:06;;;;;;;;;;;;;;;21.24;44.60;100648.12;102723;1290;62352;-81
2023/10/29 01:39:32;;;;;;;;;;;;;;;21.24;44.55;100651.86;102752;1294;62206;-82
2023/10/29 01:41:58;;;;;;;;;;;;;;;21.24;44.56;100651.52;102735;1290;62097;-82
2023/10/29 01:44:23;;;;;;;;;;;;;;;21.23;44.62;100652.79;102792;1295;62361;-82
2023/10/29 01:46:49;;;;;;;;;;;;;;;21.23;44.56;100654.75;102679;1290;62275;-82
2023/10/29 01:49:15;;;;;;;;;;;;;;;21.24;44.60;100662.25;102710;1290;63374;-82
2023/10/29 01:51:40;;;;;;;;;;;;;;;21.23;44.65;100667.30;102728;1290;62274;-82
2023/10/29 01:54:06;;;;;;;;;;;;;;;21.23;44.56;100668.92;102708;1294;62192;-80
2023/10/29 01:56:32;;;;;;;;;;;;;;;21.23;44.61;100676.45;102779;1290;62246;-80
2023/10/29 01:58:58;;;;;;;;;;;;;;;21.23;44.64;100680.20;102770;1290;62155;-81
2023/10/29 02:01:23;;;;;;;;;;;;;;;21.23;44.60;100685.02;102729;1290;62213;-80
2023/10/29 02:03:49;;;;;;;;;;;;;;;21.23;44.46;100685.23;102696;1291;63513;-81
2023/10/29 02:06:16;;;;;;;;;;;;;;;21.23;44.67;100685.96;102739;1296;63536;-83
2023/10/29 02:08:41;;;;;;;;;;;;;;;21.22;44.52;100686.86;102735;1292;62739;-84
2023/10/29 02:11:07;;;;;;;;;;;;;;;21.23;44.59;100687.20;102821;1291;62224;-80
2023/10/29 02:13:32;;;;;;;;;;;;;;;21.23;44.55;100684.52;102723;1296;62240;-80
2023/10/29 02:15:58;;;;;;;;;;;;;;;21.22;44.52;100687.05;102729;1290;62209;-81
2023/10/29 02:18:31;;;;;;;;;;;;;;;21.22;44.62;100684.91;102709;1289;76495;-83
2023/10/29 02:20:56;;;;;;;;;;;;;;;21.22;44.59;100685.11;102393;1290;471057;-82
2023/10/29 02:23:22;;;;;;;;;;;;;;;21.22;44.57;100689.94;102730;1290;62211;-82
2023/10/29 02:25:47;;;;;;;;;;;;;;;21.22;44.65;100690.83;102763;1296;62134;-81
2023/10/29 02:28:13;;;;;;;;;;;;;;;21.22;44.50;100694.58;102728;1290;63545;-82
2023/10/29 02:30:38;;;;;;;;;;;;;;;21.22;44.49;100702.63;102676;1290;63204;-81
2023/10/29 02:33:04;;;;;;;;;;;;;;;21.21;44.49;100702.17;102757;1290;62145;-82
2023/10/29 02:35:29;;;;;;;;;;;;;;;21.22;44.49;100705.55;102720;1290;62203;-82
2023/10/29 02:37:55;;;;;;;;;;;;;;;21.22;44.50;100711.22;102728;1290;62253;-80
2023/10/29 02:40:21;;;;;;;;;;;;;;;21.21;44.48;100712.02;102692;1296;62209;-81
2023/10/29 02:42:46;;;;;;;;;;;;;;;21.22;44.52;100714.48;102976;1292;62211;-80
2023/10/29 02:45:12;;;;;;;;;;;;;;;21.21;44.46;100715.77;103059;1291;62194;-80
2023/10/29 02:47:37;;;;;;;;;;;;;;;21.22;44.52;100715.23;103094;1291;62929;-83
2023/10/29 02:50:03;;;;;;;;;;;;;;;21.22;44.55;100716.45;102891;1289;62278;-82
2023/10/29 02:52:29;;;;;;;;;;;;;;;21.21;44.54;100716.17;102832;1291;62420;-82
2023/10/29 02:54:56;;;;;;;;;;;;;;;21.20;44.45;100717.60;102758;1294;62635;-82
2023/10/29 02:57:23;;;;;;;;;;;;;;;21.22;44.53;100721.30;103055;1292;62137;-82
2023/10/29 02:59:48;;;;;;;;;;;;;;;21.21;44.50;100722.78;103094;1292;62229;-82
2023/10/29 03:02:14;;;;;;;;;;;;;;;21.21;44.49;100726.17;103085;1292;62290;-81
2023/10/29 03:04:39;;;;;;;;;;;;;;;21.21;44.42;100732.27;102762;1290;75219;-82
2023/10/29 03:07:05;;;;;;;;;;;;;;;21.21;44.45;100735.14;102756;1289;62291;-83
2023/10/29 03:09:31;;;;;;;;;;;;;;;21.21;44.46;100736.70;102789;1294;62141;-81
2023/10/29 03:11:57;;;;;;;;;;;;;;;21.20;44.43;100732.66;102777;1291;62175;-81
2023/10/29 03:14:22;;;;;;;;;;;;;;;21.21;44.52;100732.65;102788;1291;62294;-82
2023/10/29 03:16:48;;;;;;;;;;;;;;;21.20;44.44;100725.67;102833;1294;62387;-80
2023/10/29 03:19:13;;;;;;;;;;;;;;;21.20;44.44;100728.17;103033;1291;62267;-82
2023/10/29 03:21:40;;;;;;;;;;;;;;;21.20;44.44;100725.70;102746;1291;62156;-81
2023/10/29 03:24:06;;;;;;;;;;;;;;;21.20;44.45;100723.00;102741;1292;62345;-81
2023/10/29 03:26:32;;;;;;;;;;;;;;;21.20;44.43;100723.39;102756;1292;63026;-82
2023/10/29 03:28:59;;;;;;;;;;;;;;;21.20;44.50;100727.70;103013;1291;62146;-81
2023/10/29 03:31:24;;;;;;;;;;;;;;;21.20;44.40;100731.98;102780;1292;62204;-81
2023/10/29 03:33:50;;;;;;;;;;;;;;;21.20;44.48;100732.52;102779;1292;62262;-82
2023/10/29 03:36:16;;;;;;;;;;;;;;;21.20;44.41;100732.34;102817;1289;62170;-82
2023/10/29 03:38:41;;;;;;;;;;;;;;;21.19;44.41;100733.27;102790;1289;62370;-82
2023/10/29 03:41:07;;;;;;;;;;;;;;;21.19;44.43;100737.02;103089;1290;63291;-81
2023/10/29 03:43:33;;;;;;;;;;;;;;;21.19;44.40;100742.39;102801;1289;62150;-81
2023/10/29 03:45:59;;;;;;;;;;;;;;;21.20;44.55;100746.86;102753;1294;62170;-81
2023/10/29 03:48:25;;;;;;;;;;;;;;;21.19;44.42;100742.59;103062;1291;62653;-81
2023/10/29 03:50:50;;;;;;;;;;;;;;;21.19;44.48;100740.27;102817;1291;63387;-82
2023/10/29 03:53:17;;;;;;;;;;;;;;;21.19;44.36;100740.45;102796;1290;62290;-81
2023/10/29 03:55:42;;;;;;;;;;;;;;;21.19;44.51;100745.13;103055;1288;62171;-83
2023/10/29 03:58:09;;;;;;;;;;;;;;;21.19;44.43;100749.78;102772;1290;72518;-80
2023/10/29 04:00:35;;;;;;;;;;;;;;;21.19;44.43;100752.80;103015;1292;75179;-82
2023/10/29 04:03:03;;;;;;;;;;;;;;;21.19;44.45;100752.47;103081;1290;62241;-82
2023/10/29 04:05:29;;;;;;;;;;;;;;;21.19;44.35;100764.11;103039;1291;62207;-81
2023/10/29 04:07:54;;;;;;;;;;;;;;;21.18;44.40;100771.63;102780;1291;63373;-82
2023/10/29 04:10:20;;;;;;;;;;;;;;;21.19;44.41;100772.33;102801;1294;62543;-82
2023/10/29 04:12:45;;;;;;;;;;;;;;;21.19;44.37;100771.99;103047;1291;63785;-82
2023/10/29 04:15:11;;;;;;;;;;;;;;;21.19;44.43;100778.60;103121;1291;63379;-83
2023/10/29 04:17:37;;;;;;;;;;;;;;;21.19;44.33;100775.39;103055;1292;62119;-81
2023/10/29 04:20:05;;;;;;;;;;;;;;;21.19;44.39;100779.46;102830;1292;63551;-81
2023/10/29 04:22:31;;;;;;;;;;;;;;;21.18;44.41;100781.14;103043;1291;75470;-83
2023/10/29 04:24:56;;;;;;;;;;;;;;;21.18;44.39;100787.22;103066;1294;62198;-82
2023/10/29 04:27:22;;;;;;;;;;;;;;;21.18;44.49;100789.00;102782;1291;63249;-81
2023/10/29 04:29:47;;;;;;;;;;;;;;;21.18;44.38;100795.25;102772;1292;63472;-81
2023/10/29 04:32:13;;;;;;;;;;;;;;;21.18;44.35;100795.64;102822;1291;62205;-81
2023/10/29 04:34:39;;;;;;;;;;;;;;;21.18;44.49;100798.70;103037;1292;62284;-82
2023/10/29 04:37:05;;;;;;;;;;;;;;;21.18;44.39;100804.58;102795;1291;63304;-84
2023/10/29 04:39:30;;;;;;;;;;;;;;;21.18;44.40;100812.30;103064;1290;63482;-83
2023/10/29 04:41:56;;;;;;;;;;;;;;;21.18;44.41;100813.38;103070;1292;62195;-81
2023/10/29 04:44:21;;;;;;;;;;;;;;;21.18;44.33;100819.48;103040;1292;62222;-82
2023/10/29 04:46:47;;;;;;;;;;;;;;;21.18;44.45;100822.14;103067;1291;63278;-81
2023/10/29 04:49:13;;;;;;;;;;;;;;;21.18;44.34;100827.91;103035;1294;62131;-81
2023/10/29 04:51:38;;;;;;;;;;;;;;;21.17;44.38;100828.10;103019;1294;62249;-81
2023/10/29 04:54:04;;;;;;;;;;;;;;;21.18;44.43;100826.66;103098;1293;62203;-83
2023/10/29 04:56:30;;;;;;;;;;;;;;;21.18;44.45;100834.14;102786;1291;62195;-83
2023/10/29 04:58:55;;;;;;;;;;;;;;;21.18;44.43;100837.57;102791;1291;63235;-83
2023/10/29 05:01:21;;;;;;;;;;;;;;;21.18;44.53;100836.48;102723;1292;62208;-82
2023/10/29 05:04:09;;;;;;;;;;;;;;;21.18;44.29;100839.71;102816;1291;62236;-82
2023/10/29 05:06:35;;;;;;;;;;;;;;;21.17;44.46;100844.38;102479;1297;72761;-81
2023/10/29 05:09:00;;;;;;;;;;;;;;;21.17;44.48;100848.35;102508;1300;62309;-81
2023/10/29 05:11:26;;;;;;;;;;;;;;;21.18;44.41;100849.36;102349;1297;63381;-82
2023/10/29 05:13:51;;;;;;;;;;;;;;;21.18;44.45;100851.87;102515;1298;62219;-83
2023/10/29 05:16:19;;;;;;;;;;;;;;;21.18;44.42;100849.16;102173;1297;62331;-81
2023/10/29 05:18:45;;;;;;;;;;;;;;;21.18;44.43;100849.72;102200;1299;73454;-81
2023/10/29 05:21:10;;;;;;;;;;;;;;;21.18;44.31;100852.74;102197;1297;62401;-82
2023/10/29 05:23:36;;;;;;;;;;;;;;;21.18;44.48;100853.63;102203;1298;63353;-81
2023/10/29 05:26:01;;;;;;;;;;;;;;;21.18;44.39;100857.41;102213;1297;62252;-81
2023/10/29 05:28:27;;;;;;;;;;;;;;;21.18;44.43;100864.19;102211;1300;62256;-81
2023/10/29 05:30:52;;;;;;;;;;;;;;;21.19;44.43;100872.74;102215;1297;62185;-81
2023/10/29 05:33:18;;;;;;;;;;;;;;;21.18;44.51;100874.55;102167;1297;62267;-82
2023/10/29 05:35:44;;;;;;;;;;;;;;;21.19;44.39;100880.62;102168;1297;62337;-82
2023/10/29 05:38:10;;;;;;;;;;;;;;;21.18;44.30;100882.96;102224;1297;62195;-81
2023/10/29 05:40:36;;;;;;;;;;;;;;;21.18;44.51;100884.92;102171;1297;63383;-80
2023/10/29 05:43:01;;;;;;;;;;;;;;;21.19;44.39;100887.06;102253;1298;62282;-81
2023/10/29 05:45:27;;;;;;;;;;;;;;;21.19;44.39;100893.30;102642;1294;75295;-82
2023/10/29 05:47:52;;;;;;;;;;;;;;;21.19;44.49;100897.97;102867;1291;62475;-82
2023/10/29 05:50:18;;;;;;;;;;;;;;;21.19;44.39;100903.29;103085;1291;62241;-81
2023/10/29 05:52:45;;;;;;;;;;;;;;;21.19;44.37;100907.10;102752;1294;62208;-81
2023/10/29 05:55:11;;;;;;;;;;;;;;;21.19;44.34;100908.88;103098;1291;62217;-82
2023/10/29 05:57:37;;;;;;;;;;;;;;;21.19;44.31;100913.52;102775;1292;62299;-81
2023/10/29 06:00:04;;;;;;;;;;;;;;;21.19;44.38;100919.21;102745;1292;62274;-81
2023/10/29 06:02:29;;;;;;;;;;;;;;;21.19;44.34;100917.98;102765;1292;63364;-82
2023/10/29 06:04:55;;;;;;;;;;;;;;;21.19;44.38;100914.95;103072;1292;62580;-84
2023/10/29 06:07:20;;;;;;;;;;;;;;;21.19;44.35;100916.36;102752;1291;62176;-83
2023/10/29 06:09:48;;;;;;;;;;;;;;;21.19;44.31;100914.74;102759;1294;62289;-82
2023/10/29 06:12:13;;;;;;;;;;;;;;;21.19;44.39;100916.19;103122;1291;63354;-83
2023/10/29 06:14:39;;;;;;;;;;;;;;;21.19;44.37;100917.77;102771;1294;62202;-83
2023/10/29 06:17:04;;;;;;;;;;;;;;;21.19;44.34;100922.45;102789;1292;62174;-81
2023/10/29 06:19:31;;;;;;;;;;;;;;;21.20;44.30;100922.95;103121;1292;63271;-82
2023/10/29 06:21:59;;;;;;;;;;;;;;;21.19;44.34;100927.65;103089;1290;62677;-81
2023/10/29 06:24:25;;;;;;;;;;;;;;;21.20;44.36;100934.60;102772;1294;62164;-82
2023/10/29 06:26:50;;;;;;;;;;;;;;;21.19;44.38;100936.06;102998;1291;62226;-81
2023/10/29 06:29:16;;;;;;;;;;;;;;;21.20;44.35;100941.20;102800;1294;62652;-81
2023/10/29 06:31:41;;;;;;;;;;;;;;;21.19;44.41;100942.48;103120;1291;62235;-81
2023/10/29 06:34:07;;;;;;;;;;;;;;;21.20;44.35;100943.72;103007;1291;62212;-80
2023/10/29 06:36:33;;;;;;;;;;;;;;;21.20;44.33;100946.55;103079;1294;62654;-82
2023/10/29 06:39:02;;;;;;;;;;;;;;;21.20;44.35;100949.80;102791;1294;63435;-81
2023/10/29 06:41:28;;;;;;;;;;;;;;;21.20;44.41;100952.65;103091;1293;62083;-81
2023/10/29 06:43:54;;;;;;;;;;;;;;;21.20;44.37;100957.66;103086;1292;62656;-82
2023/10/29 06:46:19;;;;;;;;;;;;;;;21.20;44.34;100962.46;103111;1290;62201;-81
2023/10/29 06:48:45;;;;;;;;;;;;;;;21.20;44.35;100965.52;103078;1294;62243;-80
2023/10/29 06:51:10;;;;;;;;;;;;;;;21.20;44.32;100967.11;102766;1290;62133;-82
2023/10/29 06:53:39;;;;;;;;;;;;;;;21.20;44.40;100972.52;102771;1294;62230;-82
2023/10/29 06:56:06;;;;;;;;;;;;;;;21.21;44.30;100974.98;102766;1291;62470;-81
2023/10/29 06:58:31;;;;;;;;;;;;;;;21.20;44.38;100972.15;103051;1291;73416;-83
2023/10/29 07:01:04;;;;;;;;;;;;;;;21.20;44.37;100973.02;102705;1292;62197;-81
2023/10/29 07:03:29;;;;;;;;;;;;;;;21.20;44.34;100980.72;102785;1294;62124;-81
2023/10/29 07:06:02;;;;;;;;;;;;;;;21.20;44.30;100981.26;102733;1291;62198;-81
2023/10/29 07:08:27;;;;;;;;;;;;;;;21.20;44.25;100982.67;102820;1294;71227;-81
2023/10/29 07:10:56;;;;;;;;;;;;;;;21.20;44.40;100985.19;103035;1292;63768;-84
2023/10/29 07:13:21;;;;;;;;;;;;;;;21.21;44.29;100984.98;103055;1290;62210;-83
2023/10/29 07:15:49;;;;;;;;;;;;;;;21.21;44.21;100986.77;102821;1292;62220;-82
2023/10/29 07:18:14;;;;;;;;;;;;;;;21.21;44.31;100990.33;102789;1292;73617;-83
2023/10/29 07:20:40;;;;;;;;;;;;;;;21.21;44.36;100991.95;102797;1292;62265;-81
2023/10/29 07:23:06;;;;;;;;;;;;;;;21.22;44.35;100991.22;103081;1291;62209;-83
2023/10/29 07:25:32;;;;;;;;;;;;;;;21.21;44.33;100993.77;103076;1294;62219;-83
2023/10/29 07:27:57;;;;;;;;;;;;;;;21.21;44.36;100995.73;103090;1292;62965;-81
2023/10/29 07:30:23;;;;;;;;;;;;;;;21.21;44.30;100996.41;103111;1292;62206;-82
2023/10/29 07:32:49;;;;;;;;;;;;;;;21.22;44.29;101002.66;102785;1294;62315;-82
2023/10/29 07:35:15;;;;;;;;;;;;;;;21.22;44.18;101003.73;103120;1291;62102;-83
2023/10/29 07:37:40;;;;;;;;;;;;;;;21.21;44.26;101001.45;103093;1291;62307;-81
2023/10/29 07:40:06;;;;;;;;;;;;;;;21.21;44.26;101002.13;102950;1290;62205;-81
2023/10/29 07:42:32;;;;;;;;;;;;;;;21.21;44.26;101004.47;102648;1298;62164;-81
2023/10/29 07:44:58;;;;;;;;;;;;;;;21.22;44.29;101005.30;102812;1289;62206;-81
2023/10/29 07:47:24;;;;;;;;;;;;;;;21.22;44.32;101007.05;102778;1290;62193;-83
2023/10/29 07:49:49;;;;;;;;;;;;;;;21.23;44.17;101007.59;102766;1290;63326;-83
2023/10/29 07:52:15;;;;;;;;;;;;;;;21.23;44.23;101008.12;102639;1291;62134;-83
2023/10/29 07:54:42;;;;;;;;;;;;;;;21.23;44.29;101010.77;102711;1294;62121;-82
2023/10/29 07:57:08;;;;;;;;;;;;;;;21.23;44.33;101011.67;102710;1290;62206;-81
2023/10/29 07:59:36;;;;;;;;;;;;;;;21.23;44.23;101018.27;102748;1290;63352;-84
2023/10/29 08:02:02;;;;;;;;;;;;;;;21.23;44.29;101017.40;102698;1290;62077;-81
2023/10/29 08:04:28;;;;;;;;;;;;;;;21.23;44.26;101014.17;102694;1296;62183;-81
2023/10/29 08:06:55;;;;;;;;;;;;;;;21.24;44.27;101015.58;102684;1290;63416;-83
2023/10/29 08:09:21;;;;;;;;;;;;;;;21.24;44.26;101018.62;102715;1291;63438;-81
2023/10/29 08:11:48;;;;;;;;;;;;;;;21.24;44.22;101022.34;102658;1290;62206;-81
2023/10/29 08:14:14;;;;;;;;;;;;;;;21.24;44.29;101023.05;102712;1296;62173;-81
2023/10/29 08:16:41;;;;;;;;;;;;;;;21.25;44.35;101019.80;103013;1291;62206;-81
2023/10/29 08:19:10;;;;;;;;;;;;;;;21.24;44.29;101022.32;102713;1290;63490;-82
2023/10/29 08:21:35;;;;;;;;;;;;;;;21.25;44.23;101023.56;102703;1290;72687;-83
2023/10/29 08:24:00;;;;;;;;;;;;;;;21.24;44.24;101025.55;102756;1296;63455;-81
2023/10/29 08:26:28;;;;;;;;;;;;;;;21.25;44.28;101026.39;102672;1290;62302;-81
2023/10/29 08:28:54;;;;;;;;;;;;;;;21.25;44.31;101027.83;102733;1290;63510;-81
2023/10/29 08:31:21;;;;;;;;;;;;;;;21.25;44.33;101030.86;102701;1290;62210;-80
2023/10/29 08:33:47;;;;;;;;;;;;;;;21.25;44.37;101028.73;102718;1293;62186;-81
2023/10/29 08:36:16;;;;;;;;;;;;;;;21.25;44.34;101023.70;102721;1290;62985;-82
2023/10/29 08:38:42;;;;;;;;;;;;;;;21.26;44.35;101020.63;102685;1295;62133;-81
2023/10/29 08:41:14;;;;;;;;;;;;;;;21.26;44.35;101020.09;102710;1291;62163;-82
2023/10/29 08:43:41;;;;;;;;;;;;;;;21.26;44.29;101027.05;102740;1290;75344;-81
2023/10/29 08:46:06;;;;;;;;;;;;;;;21.26;44.41;101031.16;102728;1293;62513;-82
2023/10/29 08:48:32;;;;;;;;;;;;;;;21.26;44.39;101034.74;102721;1290;62289;-81
2023/10/29 08:50:58;;;;;;;;;;;;;;;21.26;44.38;101031.88;102702;1290;63561;-82
2023/10/29 08:53:24;;;;;;;;;;;;;;;21.26;44.41;101032.75;102702;1290;62138;-82
2023/10/29 08:55:51;;;;;;;;;;;;;;;21.26;44.46;101039.91;102753;1296;62220;-82
2023/10/29 08:58:17;;;;;;;;;;;;;;;21.26;44.41;101037.77;102722;1296;63291;-81
2023/10/29 09:00:43;;;;;;;;;;;;;;;21.27;44.44;101039.55;102772;1290;62142;-83
2023/10/29 09:03:09;;;;;;;;;;;;;;;21.27;44.38;101037.38;102701;1289;62197;-81
2023/10/29 09:05:35;;;;;;;;;;;;;;;21.27;44.44;101034.33;102821;1295;62244;-81
2023/10/29 09:08:01;;;;;;;;;;;;;;;21.26;44.35;101029.36;102744;1290;63081;-82
2023/10/29 09:10:28;;;;;;;;;;;;;;;21.27;44.48;101034.14;102725;1296;62254;-82
2023/10/29 09:12:54;;;;;;;;;;;;;;;21.27;44.38;101033.79;102692;1290;62193;-80
2023/10/29 09:15:19;;;;;;;;;;;;;;;21.27;44.42;101031.62;102706;1296;62652;-82
2023/10/29 09:17:44;;;;;;;;;;;;;;;21.28;44.46;101029.11;102767;1290;63307;-82
2023/10/29 09:20:12;;;;;;;;;;;;;;;21.27;44.43;101023.39;102738;1296;63274;-81
2023/10/29 09:22:38;;;;;;;;;;;;;;;21.28;44.33;101029.27;102720;1291;62200;-81
2023/10/29 09:25:04;;;;;;;;;;;;;;;21.28;44.33;101027.30;102723;1296;62193;-81
2023/10/29 09:27:30;;;;;;;;;;;;;;;21.28;44.45;101030.87;102765;1291;62165;-81
2023/10/29 09:29:57;;;;;;;;;;;;;;;21.28;44.37;101028.19;102677;1290;63471;-81
2023/10/29 09:32:26;;;;;;;;;;;;;;;21.28;44.45;101027.45;102701;1293;62190;-84
2023/10/29 09:34:52;;;;;;;;;;;;;;;21.28;44.47;101028.36;102718;1294;72579;-81
2023/10/29 09:37:17;;;;;;;;;;;;;;;21.28;44.44;101029.80;102723;1290;62505;-81
2023/10/29 09:39:43;;;;;;;;;;;;;;;21.28;44.46;101026.57;102726;1291;62886;-81
2023/10/29 09:42:09;;;;;;;;;;;;;;;21.28;44.44;101024.25;102743;1295;62120;-82
2023/10/29 09:44:35;;;;;;;;;;;;;;;21.28;44.56;101022.27;102742;1295;62281;-81
2023/10/29 09:47:19;;;;;;;;;;;;;;;21.29;44.43;101021.84;102659;1295;72637;-82
2023/10/29 09:49:51;;;;;;;;;;;;;;;21.29;44.45;101022.07;102650;1296;75305;-81
2023/10/29 09:52:16;;;;;;;;;;;;;;;21.29;44.47;101024.19;102766;1290;63496;-82
2023/10/29 09:54:42;;;;;;;;;;;;;;;21.29;44.55;101018.65;102743;1296;62252;-81
2023/10/29 09:57:09;;;;;;;;;;;;;;;21.30;44.46;101016.27;102662;1290;62283;-81
2023/10/29 09:59:35;;;;;;;;;;;;;;;21.29;44.50;101017.39;102643;1295;62187;-82
2023/10/29 10:02:01;;;;;;;;;;;;;;;21.29;44.49;101021.88;102679;1296;63468;-81
2023/10/29 10:04:30;;;;;;;;;;;;;;;21.29;44.48;101020.98;102769;1290;62197;-81
2023/10/29 10:06:56;;;;;;;;;;;;;;;21.29;44.41;101021.14;102720;1291;62110;-82
2023/10/29 10:09:22;;;;;;;;;;;;;;;21.29;44.48;101024.34;102715;1296;62096;-82
2023/10/29 10:11:55;;;;;;;;;;;;;;;21.29;44.45;101024.52;102748;1290;62269;-81
2023/10/29 10:14:24;;;;;;;;;;;;;;;21.29;44.52;101025.92;102712;1292;63342;-82
2023/10/29 10:17:06;;;;;;;;;;;;;;;21.29;44.53;101021.67;102689;1292;72253;-82
2023/10/29 10:19:32;;;;;;;;;;;;;;;21.29;44.47;101022.36;102684;1290;75200;-82
2023/10/29 10:21:58;;;;;;;;;;;;;;;21.30;44.53;101014.11;102761;1296;62186;-81
2023/10/29 10:24:35;;;;;;;;;;;;;;;21.30;44.61;101010.33;102748;1290;63465;-82
2023/10/29 10:27:00;;;;;;;;;;;;;;;21.30;44.53;101006.95;102688;1293;74024;-82
2023/10/29 10:29:29;;;;;;;;;;;;;;;21.30;44.54;101009.96;102735;1296;62631;-81
2023/10/29 10:32:03;;;;;;;;;;;;;;;21.30;44.56;101005.70;102777;1294;63231;-82
2023/10/29 10:34:31;;;;;;;;;;;;;;;21.30;44.51;101009.27;102798;1294;62149;-82
2023/10/29 10:37:00;;;;;;;;;;;;;;;21.30;44.55;101008.34;102712;1295;72445;-81
2023/10/29 10:39:31;;;;;;;;;;;;;;;21.30;44.42;101006.02;102658;1295;75390;-82
2023/10/29 10:41:58;;;;;;;;;;;;;;;21.31;44.50;101003.13;102722;1296;62205;-81
2023/10/29 10:44:24;;;;;;;;;;;;;;;21.30;44.57;101001.70;102772;1293;62133;-82
2023/10/29 10:46:53;;;;;;;;;;;;;;;21.30;44.54;100999.92;102674;1290;62213;-81
2023/10/29 10:49:19;;;;;;;;;;;;;;;21.30;44.61;101002.77;102731;1296;74558;-81
2023/10/29 10:51:49;;;;;;;;;;;;;;;21.30;44.57;100999.91;102652;1290;62242;-81
2023/10/29 10:54:20;;;;;;;;;;;;;;;21.30;44.52;100997.05;102688;1299;62226;-82
2023/10/29 10:56:46;;;;;;;;;;;;;;;21.30;44.67;100994.55;102698;1295;71556;-82
2023/10/29 10:59:11;;;;;;;;;;;;;;;21.30;44.65;100994.73;102703;1296;62216;-81
2023/10/29 11:01:37;;;;;;;;;;;;;;;21.30;44.59;100995.42;102724;1296;62281;-81
2023/10/29 11:04:08;;;;;;;;;;;;;;;21.30;44.51;100993.85;102728;1296;63554;-82
2023/10/29 11:06:37;;;;;;;;;;;;;;;21.30;44.47;100998.33;102755;1295;72403;-82
2023/10/29 11:09:05;;;;;;;;;;;;;;;21.30;44.56;100998.48;102702;1296;75134;-81
2023/10/29 11:11:35;;;;;;;;;;;;;;;21.30;44.59;100999.56;102807;1291;62089;-81
2023/10/29 11:14:08;;;;;;;;;;;;;;;21.31;44.48;101002.41;102715;1294;63376;-83
2023/10/29 11:16:33;;;;;;;;;;;;;;;21.30;44.54;100998.87;102745;1296;72256;-83
2023/10/29 11:19:04;;;;;;;;;;;;;;;21.30;44.59;101001.71;102716;1290;63376;-81
2023/10/29 11:21:36;;;;;;;;;;;;;;;21.31;44.57;100999.36;102720;1294;62200;-81
2023/10/29 11:24:17;;;;;;;;;;;;;;;21.31;44.63;100999.90;102656;1295;62131;-81
2023/10/29 11:26:43;;;;;;;;;;;;;;;21.31;44.57;100998.11;102675;1292;72497;-82
2023/10/29 11:29:08;;;;;;;;;;;;;;;21.31;44.39;100997.56;102707;1295;63471;-81
2023/10/29 11:31:34;;;;;;;;;;;;;;;21.31;44.53;100997.38;102711;1290;62142;-81
2023/10/29 11:34:05;;;;;;;;;;;;;;;21.31;44.62;100994.70;102687;1295;62320;-81
2023/10/29 11:36:42;;;;;;;;;;;;;;;21.31;44.50;100995.20;102646;1293;73684;-82
2023/10/29 11:39:15;;;;;;;;;;;;;;;21.31;44.60;100994.14;102706;1295;75278;-81
2023/10/29 11:41:41;;;;;;;;;;;;;;;21.31;44.52;100992.52;102741;1290;62260;-82
2023/10/29 11:44:23;;;;;;;;;;;;;;;21.31;44.57;100993.77;102711;1295;62218;-81
2023/10/29 11:46:55;;;;;;;;;;;;;;;21.31;44.56;100993.95;102741;1290;71511;-81
2023/10/29 11:49:21;;;;;;;;;;;;;;;21.32;44.52;100994.44;102664;1296;75309;-80
2023/10/29 11:52:02;;;;;;;;;;;;;;;21.32;44.59;100990.70;102750;1296;62229;-81
2023/10/29 11:54:32;;;;;;;;;;;;;;;21.32;44.52;100988.87;102750;1295;62191;-80
2023/10/29 11:56:58;;;;;;;;;;;;;;;21.32;44.64;100993.16;102820;1295;73057;-81
2023/10/29 11:59:23;;;;;;;;;;;;;;;21.32;44.60;100999.39;102824;1293;62193;-84
2023/10/29 12:01:49;;;;;;;;;;;;;;;21.33;44.57;100999.04;102768;1304;62206;-81
2023/10/29 12:04:14;;;;;;;;;;;;;;;21.32;44.55;100997.79;102688;1289;63384;-82
2023/10/29 12:06:41;;;;;;;;;;;;;;;21.33;44.51;100996.90;102762;1303;62277;-81
2023/10/29 12:09:21;;;;;;;;;;;;;;;21.33;44.58;100998.84;102788;1293;72421;-81
2023/10/29 12:11:49;;;;;;;;;;;;;;;21.33;44.46;100994.04;102844;1296;75273;-81
2023/10/29 12:14:15;;;;;;;;;;;;;;;21.33;44.48;100994.02;102738;1295;62238;-83
2023/10/29 12:16:41;;;;;;;;;;;;;;;21.33;44.54;100993.65;102647;1296;62201;-81
2023/10/29 12:19:07;;;;;;;;;;;;;;;21.32;44.55;100991.90;102788;1293;62263;-82
2023/10/29 12:21:33;;;;;;;;;;;;;;;21.32;44.55;100991.71;102745;1296;62208;-83
2023/10/29 12:23:59;;;;;;;;;;;;;;;21.32;44.60;100990.10;102701;1292;62312;-81